Dresden, Maine
Current Conditions -  °F | °C
As of 10:53 PM on Wednesday 17 Dec 2014 (Local Time) from KIWI Reporting Station
Overcast Overcast  
Wind Chill: 32°   Ceiling: 1000
Heat Index: 36°   Visibility: 10mi
Dew Point: 34°   Wind: 5mph
Humidity: 93%   Direction: NA
Pressure: 29.65"   Gusts: NA
Location:  44.08°N, 69.75°W
Report Text: KIWI 180353Z AUTO VRB04KT 10SM OVC010 02/01 A2965 RMK AO2 CIG 007V012 SLP039 T00220011
Loading
Personal Weather Stations






























Interactive Weather Map New forecast layout! Learn more

10-Day Weather Forecast

Advertisements
Track Severe Weather on mobile